sensor_id;sensor_type;location;lat;lon;timestamp;P1;durP1;ratioP1;P2;durP2;ratioP2
29382;SDS011;16365;51.598;7.668;2023-02-17T00:01:21;28.27;;;18.83;;
29382;SDS011;16365;51.598;7.668;2023-02-17T00:03:50;29.90;;;19.65;;
29382;SDS011;16365;51.598;7.668;2023-02-17T00:06:19;29.75;;;19.10;;
29382;SDS011;16365;51.598;7.668;2023-02-17T00:08:49;29.90;;;19.10;;
29382;SDS011;16365;51.598;7.668;2023-02-17T00:11:16;26.23;;;18.55;;
29382;SDS011;16365;51.598;7.668;2023-02-17T00:13:44;28.23;;;19.38;;
29382;SDS011;16365;51.598;7.668;2023-02-17T00:16:16;28.48;;;18.50;;
29382;SDS011;16365;51.598;7.668;2023-02-17T00:18:45;31.17;;;19.05;;
29382;SDS011;16365;51.598;7.668;2023-02-17T00:21:14;28.80;;;19.13;;
29382;SDS011;16365;51.598;7.668;2023-02-17T00:23:43;30.25;;;19.63;;
29382;SDS011;16365;51.598;7.668;2023-02-17T00:26:11;28.15;;;18.77;;
29382;SDS011;16365;51.598;7.668;2023-02-17T00:28:37;32.65;;;20.08;;
29382;SDS011;16365;51.598;7.668;2023-02-17T00:31:14;28.92;;;19.75;;
29382;SDS011;16365;51.598;7.668;2023-02-17T00:33:42;31.45;;;18.88;;
29382;SDS011;16365;51.598;7.668;2023-02-17T00:36:10;33.00;;;19.90;;
29382;SDS011;16365;51.598;7.668;2023-02-17T00:38:38;31.10;;;18.63;;
29382;SDS011;16365;51.598;7.668;2023-02-17T00:41:05;29.05;;;17.48;;
29382;SDS011;16365;51.598;7.668;2023-02-17T00:43:32;27.90;;;18.10;;
29382;SDS011;16365;51.598;7.668;2023-02-17T00:45:58;26.40;;;17.20;;
29382;SDS011;16365;51.598;7.668;2023-02-17T00:48:25;29.00;;;16.48;;
29382;SDS011;16365;51.598;7.668;2023-02-17T00:50:51;28.77;;;18.25;;
29382;SDS011;16365;51.598;7.668;2023-02-17T00:53:19;31.50;;;17.27;;
29382;SDS011;16365;51.598;7.668;2023-02-17T00:55:46;29.70;;;16.60;;
29382;SDS011;16365;51.598;7.668;2023-02-17T00:58:13;25.58;;;15.68;;
29382;SDS011;16365;51.598;7.668;2023-02-17T01:00:39;27.52;;;15.68;;
29382;SDS011;16365;51.598;7.668;2023-02-17T01:03:05;26.20;;;15.20;;
29382;SDS011;16365;51.598;7.668;2023-02-17T01:05:32;25.35;;;15.93;;
29382;SDS011;16365;51.598;7.668;2023-02-17T01:07:59;24.77;;;14.75;;
29382;SDS011;16365;51.598;7.668;2023-02-17T01:10:25;22.10;;;14.25;;
29382;SDS011;16365;51.598;7.668;2023-02-17T01:12:52;22.13;;;15.52;;
29382;SDS011;16365;51.598;7.668;2023-02-17T01:15:19;23.75;;;14.73;;
29382;SDS011;16365;51.598;7.668;2023-02-17T01:17:45;22.48;;;14.38;;
29382;SDS011;16365;51.598;7.668;2023-02-17T01:20:12;23.55;;;14.13;;
29382;SDS011;16365;51.598;7.668;2023-02-17T01:22:38;22.83;;;13.88;;
29382;SDS011;16365;51.598;7.668;2023-02-17T01:25:05;27.45;;;15.07;;
29382;SDS011;16365;51.598;7.668;2023-02-17T01:27:32;22.08;;;14.02;;
29382;SDS011;16365;51.598;7.668;2023-02-17T01:29:58;20.42;;;13.32;;
29382;SDS011;16365;51.598;7.668;2023-02-17T01:32:25;22.85;;;13.80;;
29382;SDS011;16365;51.598;7.668;2023-02-17T01:34:52;22.80;;;14.75;;
29382;SDS011;16365;51.598;7.668;2023-02-17T01:37:19;27.90;;;13.25;;
29382;SDS011;16365;51.598;7.668;2023-02-17T01:39:45;23.77;;;13.73;;
29382;SDS011;16365;51.598;7.668;2023-02-17T01:42:15;24.95;;;13.35;;
29382;SDS011;16365;51.598;7.668;2023-02-17T01:48:02;25.38;;;13.25;;
29382;SDS011;16365;51.598;7.668;2023-02-17T01:50:37;23.33;;;13.85;;
29382;SDS011;16365;51.598;7.668;2023-02-17T01:53:08;22.75;;;13.07;;
29382;SDS011;16365;51.598;7.668;2023-02-17T01:55:37;21.88;;;13.80;;
29382;SDS011;16365;51.598;7.668;2023-02-17T01:58:06;26.55;;;12.98;;
29382;SDS011;16365;51.598;7.668;2023-02-17T02:00:37;23.17;;;13.73;;
29382;SDS011;16365;51.598;7.668;2023-02-17T02:03:05;20.45;;;13.02;;
29382;SDS011;16365;51.598;7.668;2023-02-17T02:05:36;20.33;;;13.50;;
29382;SDS011;16365;51.598;7.668;2023-02-17T02:08:04;20.83;;;13.43;;
29382;SDS011;16365;51.598;7.668;2023-02-17T02:10:30;18.83;;;12.30;;
29382;SDS011;16365;51.598;7.668;2023-02-17T02:12:57;21.73;;;12.57;;
29382;SDS011;16365;51.598;7.668;2023-02-17T02:15:24;21.30;;;13.05;;
29382;SDS011;16365;51.598;7.668;2023-02-17T02:28:57;17.73;;;12.05;;
29382;SDS011;16365;51.598;7.668;2023-02-17T02:31:48;20.10;;;12.60;;
29382;SDS011;16365;51.598;7.668;2023-02-17T02:34:32;22.45;;;12.52;;
29382;SDS011;16365;51.598;7.668;2023-02-17T02:37:05;20.80;;;12.13;;
29382;SDS011;16365;51.598;7.668;2023-02-17T02:39:38;23.52;;;13.20;;
29382;SDS011;16365;51.598;7.668;2023-02-17T02:42:10;19.05;;;12.38;;
29382;SDS011;16365;51.598;7.668;2023-02-17T02:44:39;20.23;;;12.32;;
29382;SDS011;16365;51.598;7.668;2023-02-17T02:49:55;19.00;;;12.63;;
29382;SDS011;16365;51.598;7.668;2023-02-17T02:53:09;18.70;;;11.45;;
29382;SDS011;16365;51.598;7.668;2023-02-17T02:58:10;20.55;;;12.95;;
29382;SDS011;16365;51.598;7.668;2023-02-17T03:00:58;19.08;;;12.88;;
29382;SDS011;16365;51.598;7.668;2023-02-17T03:03:34;18.00;;;11.93;;
29382;SDS011;16365;51.598;7.668;2023-02-17T03:06:30;19.13;;;11.82;;
29382;SDS011;16365;51.598;7.668;2023-02-17T03:09:13;18.60;;;12.43;;
29382;SDS011;16365;51.598;7.668;2023-02-17T03:11:44;17.55;;;12.30;;
29382;SDS011;16365;51.598;7.668;2023-02-17T03:14:14;24.42;;;13.35;;
29382;SDS011;16365;51.598;7.668;2023-02-17T03:16:45;21.42;;;12.57;;
29382;SDS011;16365;51.598;7.668;2023-02-17T03:19:12;16.92;;;11.38;;
29382;SDS011;16365;51.598;7.668;2023-02-17T03:21:51;17.95;;;12.45;;
29382;SDS011;16365;51.598;7.668;2023-02-17T03:24:24;20.13;;;12.45;;
29382;SDS011;16365;51.598;7.668;2023-02-17T03:26:50;18.10;;;12.23;;
29382;SDS011;16365;51.598;7.668;2023-02-17T03:29:16;17.90;;;11.80;;
29382;SDS011;16365;51.598;7.668;2023-02-17T03:31:43;16.92;;;11.82;;
29382;SDS011;16365;51.598;7.668;2023-02-17T03:34:10;19.15;;;12.23;;
29382;SDS011;16365;51.598;7.668;2023-02-17T03:36:36;19.30;;;12.68;;
29382;SDS011;16365;51.598;7.668;2023-02-17T03:39:02;19.45;;;12.85;;
29382;SDS011;16365;51.598;7.668;2023-02-17T03:41:29;17.70;;;11.82;;
29382;SDS011;16365;51.598;7.668;2023-02-17T03:43:55;16.23;;;11.40;;
29382;SDS011;16365;51.598;7.668;2023-02-17T03:46:22;20.42;;;11.43;;
29382;SDS011;16365;51.598;7.668;2023-02-17T03:48:48;17.75;;;11.88;;
29382;SDS011;16365;51.598;7.668;2023-02-17T03:51:17;16.65;;;11.50;;
29382;SDS011;16365;51.598;7.668;2023-02-17T03:53:46;16.40;;;11.60;;
29382;SDS011;16365;51.598;7.668;2023-02-17T03:56:15;17.88;;;11.23;;
29382;SDS011;16365;51.598;7.668;2023-02-17T03:58:42;18.50;;;11.37;;
29382;SDS011;16365;51.598;7.668;2023-02-17T04:01:10;15.43;;;10.73;;
29382;SDS011;16365;51.598;7.668;2023-02-17T04:06:04;15.77;;;10.77;;
29382;SDS011;16365;51.598;7.668;2023-02-17T04:08:32;15.32;;;10.38;;
29382;SDS011;16365;51.598;7.668;2023-02-17T04:10:59;15.38;;;10.75;;
29382;SDS011;16365;51.598;7.668;2023-02-17T04:13:27;15.38;;;10.10;;
29382;SDS011;16365;51.598;7.668;2023-02-17T04:15:54;14.82;;;10.38;;
29382;SDS011;16365;51.598;7.668;2023-02-17T04:18:21;16.13;;;10.38;;
29382;SDS011;16365;51.598;7.668;2023-02-17T04:20:48;16.63;;;10.55;;
29382;SDS011;16365;51.598;7.668;2023-02-17T04:23:16;14.38;;;9.40;;
29382;SDS011;16365;51.598;7.668;2023-02-17T04:25:43;16.02;;;10.05;;
29382;SDS011;16365;51.598;7.668;2023-02-17T04:28:10;14.63;;;9.00;;
29382;SDS011;16365;51.598;7.668;2023-02-17T04:30:38;15.13;;;9.15;;
29382;SDS011;16365;51.598;7.668;2023-02-17T04:33:05;13.43;;;9.48;;
29382;SDS011;16365;51.598;7.668;2023-02-17T04:35:31;12.77;;;9.30;;
29382;SDS011;16365;51.598;7.668;2023-02-17T04:37:58;17.27;;;9.93;;
29382;SDS011;16365;51.598;7.668;2023-02-17T04:40:24;13.88;;;9.52;;
29382;SDS011;16365;51.598;7.668;2023-02-17T04:42:51;13.65;;;9.38;;
29382;SDS011;16365;51.598;7.668;2023-02-17T04:45:17;16.08;;;9.90;;
29382;SDS011;16365;51.598;7.668;2023-02-17T04:47:45;14.30;;;9.68;;
29382;SDS011;16365;51.598;7.668;2023-02-17T04:50:11;13.47;;;9.50;;
29382;SDS011;16365;51.598;7.668;2023-02-17T04:52:38;14.07;;;9.43;;
29382;SDS011;16365;51.598;7.668;2023-02-17T04:55:05;15.63;;;9.45;;
29382;SDS011;16365;51.598;7.668;2023-02-17T04:57:31;12.35;;;8.88;;
29382;SDS011;16365;51.598;7.668;2023-02-17T04:59:58;12.88;;;8.57;;
29382;SDS011;16365;51.598;7.668;2023-02-17T05:02:25;12.80;;;9.20;;
29382;SDS011;16365;51.598;7.668;2023-02-17T05:04:55;13.30;;;8.80;;
29382;SDS011;16365;51.598;7.668;2023-02-17T05:07:22;13.15;;;8.82;;
29382;SDS011;16365;51.598;7.668;2023-02-17T05:09:51;12.07;;;8.82;;
29382;SDS011;16365;51.598;7.668;2023-02-17T05:12:19;12.55;;;8.93;;
29382;SDS011;16365;51.598;7.668;2023-02-17T05:14:45;12.05;;;8.45;;
29382;SDS011;16365;51.598;7.668;2023-02-17T05:17:12;12.07;;;8.48;;
29382;SDS011;16365;51.598;7.668;2023-02-17T05:19:38;14.02;;;9.18;;
29382;SDS011;16365;51.598;7.668;2023-02-17T05:22:04;13.32;;;9.00;;
29382;SDS011;16365;51.598;7.668;2023-02-17T05:24:31;13.48;;;9.40;;
29382;SDS011;16365;51.598;7.668;2023-02-17T05:26:57;12.52;;;8.63;;
29382;SDS011;16365;51.598;7.668;2023-02-17T05:29:24;12.93;;;8.77;;
29382;SDS011;16365;51.598;7.668;2023-02-17T05:31:51;11.13;;;8.38;;
29382;SDS011;16365;51.598;7.668;2023-02-17T05:34:17;12.77;;;8.32;;
29382;SDS011;16365;51.598;7.668;2023-02-17T05:36:43;11.63;;;8.68;;
29382;SDS011;16365;51.598;7.668;2023-02-17T05:39:10;12.52;;;8.43;;
29382;SDS011;16365;51.598;7.668;2023-02-17T05:41:37;13.18;;;8.88;;
29382;SDS011;16365;51.598;7.668;2023-02-17T05:44:04;12.77;;;8.57;;
29382;SDS011;16365;51.598;7.668;2023-02-17T05:46:30;13.02;;;8.68;;
29382;SDS011;16365;51.598;7.668;2023-02-17T05:48:57;12.07;;;7.97;;
29382;SDS011;16365;51.598;7.668;2023-02-17T05:51:23;13.85;;;8.55;;
29382;SDS011;16365;51.598;7.668;2023-02-17T05:53:50;13.52;;;8.45;;
29382;SDS011;16365;51.598;7.668;2023-02-17T05:56:17;11.27;;;7.90;;
29382;SDS011;16365;51.598;7.668;2023-02-17T05:58:43;12.43;;;8.20;;
29382;SDS011;16365;51.598;7.668;2023-02-17T06:01:10;14.85;;;8.57;;
29382;SDS011;16365;51.598;7.668;2023-02-17T06:03:37;13.00;;;8.43;;
29382;SDS011;16365;51.598;7.668;2023-02-17T06:06:04;10.90;;;8.00;;
29382;SDS011;16365;51.598;7.668;2023-02-17T06:08:33;12.10;;;8.10;;
29382;SDS011;16365;51.598;7.668;2023-02-17T06:10:59;13.05;;;9.20;;
29382;SDS011;16365;51.598;7.668;2023-02-17T06:13:26;12.50;;;8.40;;
29382;SDS011;16365;51.598;7.668;2023-02-17T06:15:52;14.60;;;9.48;;
29382;SDS011;16365;51.598;7.668;2023-02-17T06:18:19;13.45;;;9.40;;
29382;SDS011;16365;51.598;7.668;2023-02-17T06:20:45;12.70;;;8.65;;
29382;SDS011;16365;51.598;7.668;2023-02-17T06:23:12;20.40;;;10.13;;
29382;SDS011;16365;51.598;7.668;2023-02-17T06:25:39;15.98;;;10.43;;
29382;SDS011;16365;51.598;7.668;2023-02-17T06:28:05;14.70;;;10.00;;
29382;SDS011;16365;51.598;7.668;2023-02-17T06:30:32;14.38;;;9.95;;
29382;SDS011;16365;51.598;7.668;2023-02-17T06:32:58;13.82;;;9.50;;
29382;SDS011;16365;51.598;7.668;2023-02-17T06:35:25;15.95;;;11.23;;
29382;SDS011;16365;51.598;7.668;2023-02-17T06:37:51;14.40;;;9.98;;
29382;SDS011;16365;51.598;7.668;2023-02-17T06:40:18;15.85;;;10.30;;
29382;SDS011;16365;51.598;7.668;2023-02-17T06:42:44;14.25;;;10.23;;
29382;SDS011;16365;51.598;7.668;2023-02-17T06:45:11;14.02;;;9.73;;
29382;SDS011;16365;51.598;7.668;2023-02-17T06:47:37;15.18;;;10.73;;
29382;SDS011;16365;51.598;7.668;2023-02-17T06:50:04;16.08;;;10.43;;
29382;SDS011;16365;51.598;7.668;2023-02-17T06:52:32;17.10;;;11.38;;
29382;SDS011;16365;51.598;7.668;2023-02-17T06:54:58;16.35;;;9.90;;
29382;SDS011;16365;51.598;7.668;2023-02-17T06:57:25;15.50;;;11.30;;
29382;SDS011;16365;51.598;7.668;2023-02-17T06:59:51;15.60;;;10.85;;
29382;SDS011;16365;51.598;7.668;2023-02-17T07:02:18;15.93;;;9.80;;
29382;SDS011;16365;51.598;7.668;2023-02-17T07:04:44;14.45;;;10.27;;
29382;SDS011;16365;51.598;7.668;2023-02-17T07:07:11;15.70;;;10.13;;
29382;SDS011;16365;51.598;7.668;2023-02-17T07:09:38;15.07;;;10.48;;
29382;SDS011;16365;51.598;7.668;2023-02-17T07:12:05;17.60;;;11.15;;
29382;SDS011;16365;51.598;7.668;2023-02-17T07:14:32;15.70;;;10.68;;
29382;SDS011;16365;51.598;7.668;2023-02-17T07:19:27;14.43;;;10.05;;
29382;SDS011;16365;51.598;7.668;2023-02-17T07:21:53;15.98;;;10.52;;
29382;SDS011;16365;51.598;7.668;2023-02-17T07:24:20;15.20;;;10.25;;
29382;SDS011;16365;51.598;7.668;2023-02-17T07:26:46;15.00;;;9.88;;
29382;SDS011;16365;51.598;7.668;2023-02-17T07:29:13;15.55;;;10.55;;
29382;SDS011;16365;51.598;7.668;2023-02-17T07:31:39;16.85;;;10.07;;
29382;SDS011;16365;51.598;7.668;2023-02-17T07:34:06;19.73;;;9.95;;
29382;SDS011;16365;51.598;7.668;2023-02-17T07:36:32;13.02;;;9.38;;
29382;SDS011;16365;51.598;7.668;2023-02-17T07:38:59;12.93;;;9.73;;
29382;SDS011;16365;51.598;7.668;2023-02-17T07:41:25;12.57;;;9.38;;
29382;SDS011;16365;51.598;7.668;2023-02-17T07:43:56;16.15;;;9.50;;
29382;SDS011;16365;51.598;7.668;2023-02-17T07:46:23;12.98;;;9.65;;
29382;SDS011;16365;51.598;7.668;2023-02-17T07:51:18;14.80;;;8.65;;
29382;SDS011;16365;51.598;7.668;2023-02-17T07:53:47;13.15;;;8.82;;
29382;SDS011;16365;51.598;7.668;2023-02-17T07:56:15;11.75;;;8.60;;
29382;SDS011;16365;51.598;7.668;2023-02-17T07:58:43;14.45;;;8.45;;
29382;SDS011;16365;51.598;7.668;2023-02-17T08:01:11;12.40;;;8.52;;
29382;SDS011;16365;51.598;7.668;2023-02-17T08:03:40;14.70;;;8.85;;
29382;SDS011;16365;51.598;7.668;2023-02-17T08:06:10;13.65;;;8.95;;
29382;SDS011;16365;51.598;7.668;2023-02-17T08:08:39;13.02;;;8.77;;
29382;SDS011;16365;51.598;7.668;2023-02-17T08:11:24;14.98;;;8.70;;
29382;SDS011;16365;51.598;7.668;2023-02-17T08:14:11;16.17;;;9.65;;
29382;SDS011;16365;51.598;7.668;2023-02-17T08:16:38;14.10;;;9.80;;
29382;SDS011;16365;51.598;7.668;2023-02-17T08:19:05;15.68;;;8.63;;
29382;SDS011;16365;51.598;7.668;2023-02-17T08:21:32;15.90;;;9.00;;
29382;SDS011;16365;51.598;7.668;2023-02-17T08:23:59;13.25;;;8.98;;
29382;SDS011;16365;51.598;7.668;2023-02-17T08:26:25;13.43;;;8.77;;
29382;SDS011;16365;51.598;7.668;2023-02-17T08:28:52;14.13;;;10.35;;
29382;SDS011;16365;51.598;7.668;2023-02-17T08:31:21;15.20;;;9.95;;
29382;SDS011;16365;51.598;7.668;2023-02-17T08:33:50;13.10;;;8.95;;
29382;SDS011;16365;51.598;7.668;2023-02-17T08:36:18;16.63;;;10.63;;
29382;SDS011;16365;51.598;7.668;2023-02-17T08:38:47;13.35;;;9.38;;
29382;SDS011;16365;51.598;7.668;2023-02-17T08:41:19;14.45;;;9.55;;
29382;SDS011;16365;51.598;7.668;2023-02-17T08:43:50;14.55;;;9.43;;
29382;SDS011;16365;51.598;7.668;2023-02-17T08:46:17;14.88;;;9.05;;
29382;SDS011;16365;51.598;7.668;2023-02-17T08:48:47;13.32;;;8.93;;
29382;SDS011;16365;51.598;7.668;2023-02-17T08:51:15;12.65;;;9.20;;
29382;SDS011;16365;51.598;7.668;2023-02-17T08:53:43;12.43;;;9.25;;
29382;SDS011;16365;51.598;7.668;2023-02-17T08:56:10;13.98;;;8.57;;
29382;SDS011;16365;51.598;7.668;2023-02-17T08:58:37;12.98;;;8.02;;
29382;SDS011;16365;51.598;7.668;2023-02-17T09:01:03;12.13;;;8.52;;
29382;SDS011;16365;51.598;7.668;2023-02-17T09:03:32;11.93;;;8.52;;
29382;SDS011;16365;51.598;7.668;2023-02-17T09:06:00;14.95;;;8.15;;
29382;SDS011;16365;51.598;7.668;2023-02-17T09:08:26;12.85;;;8.25;;
29382;SDS011;16365;51.598;7.668;2023-02-17T09:10:54;13.73;;;9.00;;
29382;SDS011;16365;51.598;7.668;2023-02-17T09:13:21;12.50;;;8.38;;
29382;SDS011;16365;51.598;7.668;2023-02-17T09:15:47;15.10;;;8.95;;
29382;SDS011;16365;51.598;7.668;2023-02-17T09:18:14;12.50;;;8.80;;
29382;SDS011;16365;51.598;7.668;2023-02-17T09:20:41;12.05;;;8.20;;
29382;SDS011;16365;51.598;7.668;2023-02-17T09:23:08;11.57;;;8.43;;
29382;SDS011;16365;51.598;7.668;2023-02-17T09:25:35;11.80;;;8.30;;
29382;SDS011;16365;51.598;7.668;2023-02-17T09:28:01;12.18;;;8.15;;
29382;SDS011;16365;51.598;7.668;2023-02-17T09:30:27;10.38;;;7.53;;
29382;SDS011;16365;51.598;7.668;2023-02-17T09:32:54;12.65;;;7.88;;
29382;SDS011;16365;51.598;7.668;2023-02-17T09:35:21;9.90;;;6.82;;
29382;SDS011;16365;51.598;7.668;2023-02-17T09:37:48;10.52;;;7.72;;
29382;SDS011;16365;51.598;7.668;2023-02-17T09:40:28;9.35;;;7.13;;
29382;SDS011;16365;51.598;7.668;2023-02-17T09:43:15;10.57;;;6.97;;
29382;SDS011;16365;51.598;7.668;2023-02-17T09:45:50;11.82;;;8.02;;
29382;SDS011;16365;51.598;7.668;2023-02-17T09:48:23;10.00;;;6.97;;
29382;SDS011;16365;51.598;7.668;2023-02-17T09:51:01;11.55;;;7.03;;
29382;SDS011;16365;51.598;7.668;2023-02-17T09:53:42;10.05;;;6.75;;
29382;SDS011;16365;51.598;7.668;2023-02-17T09:56:28;12.32;;;7.88;;
29382;SDS011;16365;51.598;7.668;2023-02-17T09:58:59;13.77;;;7.50;;
29382;SDS011;16365;51.598;7.668;2023-02-17T10:01:32;9.77;;;7.38;;
29382;SDS011;16365;51.598;7.668;2023-02-17T10:04:01;10.07;;;6.97;;
29382;SDS011;16365;51.598;7.668;2023-02-17T10:06:37;11.82;;;6.82;;
29382;SDS011;16365;51.598;7.668;2023-02-17T10:12:13;10.77;;;7.07;;
29382;SDS011;16365;51.598;7.668;2023-02-17T10:17:31;12.95;;;7.97;;
29382;SDS011;16365;51.598;7.668;2023-02-17T10:22:32;12.50;;;7.22;;
29382;SDS011;16365;51.598;7.668;2023-02-17T10:25:00;14.15;;;8.32;;
29382;SDS011;16365;51.598;7.668;2023-02-17T10:27:36;13.82;;;8.55;;
29382;SDS011;16365;51.598;7.668;2023-02-17T10:33:00;13.52;;;8.25;;
29382;SDS011;16365;51.598;7.668;2023-02-17T10:40:46;11.73;;;8.13;;
29382;SDS011;16365;51.598;7.668;2023-02-17T10:43:21;12.88;;;8.65;;
29382;SDS011;16365;51.598;7.668;2023-02-17T10:45:52;10.95;;;8.27;;
29382;SDS011;16365;51.598;7.668;2023-02-17T10:48:24;11.27;;;8.07;;
29382;SDS011;16365;51.598;7.668;2023-02-17T10:51:02;14.02;;;8.88;;
29382;SDS011;16365;51.598;7.668;2023-02-17T10:53:30;18.92;;;10.25;;
29382;SDS011;16365;51.598;7.668;2023-02-17T10:58:39;11.98;;;8.90;;
29382;SDS011;16365;51.598;7.668;2023-02-17T11:01:15;13.30;;;8.93;;
29382;SDS011;16365;51.598;7.668;2023-02-17T11:03:42;13.13;;;9.68;;
29382;SDS011;16365;51.598;7.668;2023-02-17T11:06:16;12.93;;;8.85;;
29382;SDS011;16365;51.598;7.668;2023-02-17T11:08:48;11.98;;;9.10;;
29382;SDS011;16365;51.598;7.668;2023-02-17T11:16:56;11.20;;;8.45;;
29382;SDS011;16365;51.598;7.668;2023-02-17T11:19:26;13.02;;;9.70;;
29382;SDS011;16365;51.598;7.668;2023-02-17T11:21:56;12.90;;;10.02;;
29382;SDS011;16365;51.598;7.668;2023-02-17T11:24:24;13.75;;;10.05;;
29382;SDS011;16365;51.598;7.668;2023-02-17T11:29:35;15.43;;;10.40;;
29382;SDS011;16365;51.598;7.668;2023-02-17T11:32:03;12.65;;;9.45;;
29382;SDS011;16365;51.598;7.668;2023-02-17T11:34:35;15.18;;;10.65;;
29382;SDS011;16365;51.598;7.668;2023-02-17T11:39:43;13.25;;;9.45;;
29382;SDS011;16365;51.598;7.668;2023-02-17T11:44:47;10.60;;;7.97;;
29382;SDS011;16365;51.598;7.668;2023-02-17T11:50:06;9.43;;;7.22;;
29382;SDS011;16365;51.598;7.668;2023-02-17T11:56:18;11.32;;;8.10;;
29382;SDS011;16365;51.598;7.668;2023-02-17T12:01:46;10.65;;;7.32;;
29382;SDS011;16365;51.598;7.668;2023-02-17T12:04:27;11.77;;;8.60;;
29382;SDS011;16365;51.598;7.668;2023-02-17T12:09:52;13.15;;;8.27;;
29382;SDS011;16365;51.598;7.668;2023-02-17T12:23:43;13.20;;;6.95;;
29382;SDS011;16365;51.598;7.668;2023-02-17T12:29:39;8.65;;;6.25;;
29382;SDS011;16365;51.598;7.668;2023-02-17T12:34:49;9.95;;;7.60;;
29382;SDS011;16365;51.598;7.668;2023-02-17T12:37:43;11.60;;;7.88;;
29382;SDS011;16365;51.598;7.668;2023-02-17T12:40:33;13.98;;;8.10;;
29382;SDS011;16365;51.598;7.668;2023-02-17T12:46:23;11.65;;;8.18;;
29382;SDS011;16365;51.598;7.668;2023-02-17T12:49:02;11.32;;;7.57;;
29382;SDS011;16365;51.598;7.668;2023-02-17T12:51:46;15.93;;;9.80;;
29382;SDS011;16365;51.598;7.668;2023-02-17T12:54:22;13.65;;;9.40;;
29382;SDS011;16365;51.598;7.668;2023-02-17T12:57:07;12.80;;;8.55;;
29382;SDS011;16365;51.598;7.668;2023-02-17T13:00:19;10.18;;;7.72;;
29382;SDS011;16365;51.598;7.668;2023-02-17T13:02:55;12.68;;;8.75;;
29382;SDS011;16365;51.598;7.668;2023-02-17T13:05:25;14.90;;;8.65;;
29382;SDS011;16365;51.598;7.668;2023-02-17T13:07:57;14.38;;;9.32;;
29382;SDS011;16365;51.598;7.668;2023-02-17T13:10:31;11.20;;;8.48;;
29382;SDS011;16365;51.598;7.668;2023-02-17T13:13:04;14.23;;;9.23;;
29382;SDS011;16365;51.598;7.668;2023-02-17T13:15:40;13.60;;;7.72;;
29382;SDS011;16365;51.598;7.668;2023-02-17T13:23:25;7.68;;;6.07;;
29382;SDS011;16365;51.598;7.668;2023-02-17T13:26:14;11.75;;;5.93;;
29382;SDS011;16365;51.598;7.668;2023-02-17T13:28:51;8.73;;;5.03;;
29382;SDS011;16365;51.598;7.668;2023-02-17T13:31:21;7.82;;;5.28;;
29382;SDS011;16365;51.598;7.668;2023-02-17T13:38:54;6.97;;;4.07;;
29382;SDS011;16365;51.598;7.668;2023-02-17T13:41:33;6.03;;;3.95;;
29382;SDS011;16365;51.598;7.668;2023-02-17T13:44:53;10.73;;;4.60;;
29382;SDS011;16365;51.598;7.668;2023-02-17T13:47:16;5.82;;;3.92;;
29382;SDS011;16365;51.598;7.668;2023-02-17T13:49:52;7.50;;;3.88;;
29382;SDS011;16365;51.598;7.668;2023-02-17T13:52:24;7.40;;;4.50;;
29382;SDS011;16365;51.598;7.668;2023-02-17T13:55:35;11.32;;;3.70;;
29382;SDS011;16365;51.598;7.668;2023-02-17T13:57:44;5.25;;;4.05;;
29382;SDS011;16365;51.598;7.668;2023-02-17T14:02:55;6.95;;;4.50;;
29382;SDS011;16365;51.598;7.668;2023-02-17T14:05:25;7.22;;;4.43;;
29382;SDS011;16365;51.598;7.668;2023-02-17T14:08:03;6.70;;;5.25;;
29382;SDS011;16365;51.598;7.668;2023-02-17T14:10:32;8.02;;;5.65;;
29382;SDS011;16365;51.598;7.668;2023-02-17T14:12:59;13.10;;;8.80;;
29382;SDS011;16365;51.598;7.668;2023-02-17T14:15:27;15.95;;;10.13;;
29382;SDS011;16365;51.598;7.668;2023-02-17T14:17:54;14.00;;;11.13;;
29382;SDS011;16365;51.598;7.668;2023-02-17T14:20:31;11.30;;;9.07;;
29382;SDS011;16365;51.598;7.668;2023-02-17T14:23:00;11.75;;;8.85;;
29382;SDS011;16365;51.598;7.668;2023-02-17T14:25:31;7.45;;;6.60;;
29382;SDS011;16365;51.598;7.668;2023-02-17T14:27:59;8.45;;;5.88;;
29382;SDS011;16365;51.598;7.668;2023-02-17T14:30:27;8.93;;;5.68;;
29382;SDS011;16365;51.598;7.668;2023-02-17T14:35:50;8.57;;;5.22;;
29382;SDS011;16365;51.598;7.668;2023-02-17T14:38:26;6.50;;;5.22;;
29382;SDS011;16365;51.598;7.668;2023-02-17T14:40:54;7.65;;;4.65;;
29382;SDS011;16365;51.598;7.668;2023-02-17T14:43:21;8.80;;;5.18;;
29382;SDS011;16365;51.598;7.668;2023-02-17T14:45:48;6.65;;;4.97;;
29382;SDS011;16365;51.598;7.668;2023-02-17T14:48:16;6.63;;;5.25;;
29382;SDS011;16365;51.598;7.668;2023-02-17T14:50:42;6.38;;;4.82;;
29382;SDS011;16365;51.598;7.668;2023-02-17T14:53:16;5.95;;;4.90;;
29382;SDS011;16365;51.598;7.668;2023-02-17T14:58:25;9.35;;;5.75;;
29382;SDS011;16365;51.598;7.668;2023-02-17T15:00:52;7.50;;;5.28;;
29382;SDS011;16365;51.598;7.668;2023-02-17T15:03:18;10.13;;;5.38;;
29382;SDS011;16365;51.598;7.668;2023-02-17T15:05:44;9.25;;;6.30;;
29382;SDS011;16365;51.598;7.668;2023-02-17T15:08:12;9.88;;;6.72;;
29382;SDS011;16365;51.598;7.668;2023-02-17T15:10:41;8.75;;;6.53;;
29382;SDS011;16365;51.598;7.668;2023-02-17T15:13:16;10.38;;;6.70;;
29382;SDS011;16365;51.598;7.668;2023-02-17T15:15:45;10.10;;;6.80;;
29382;SDS011;16365;51.598;7.668;2023-02-17T15:18:13;9.55;;;7.15;;
29382;SDS011;16365;51.598;7.668;2023-02-17T15:23:12;12.68;;;7.28;;
29382;SDS011;16365;51.598;7.668;2023-02-17T15:25:41;10.07;;;7.32;;
29382;SDS011;16365;51.598;7.668;2023-02-17T15:28:15;10.60;;;7.37;;
29382;SDS011;16365;51.598;7.668;2023-02-17T15:30:45;10.18;;;7.10;;
29382;SDS011;16365;51.598;7.668;2023-02-17T15:33:16;10.85;;;7.90;;
29382;SDS011;16365;51.598;7.668;2023-02-17T15:35:45;10.63;;;8.00;;
29382;SDS011;16365;51.598;7.668;2023-02-17T15:38:14;12.85;;;7.55;;
29382;SDS011;16365;51.598;7.668;2023-02-17T15:40:40;11.48;;;8.90;;
29382;SDS011;16365;51.598;7.668;2023-02-17T15:43:09;15.10;;;9.77;;
29382;SDS011;16365;51.598;7.668;2023-02-17T15:45:39;20.17;;;11.57;;
29382;SDS011;16365;51.598;7.668;2023-02-17T15:48:21;16.02;;;12.18;;
29382;SDS011;16365;51.598;7.668;2023-02-17T15:50:50;15.02;;;11.05;;
29382;SDS011;16365;51.598;7.668;2023-02-17T15:53:17;19.00;;;9.57;;
29382;SDS011;16365;51.598;7.668;2023-02-17T15:55:44;13.10;;;8.98;;
29382;SDS011;16365;51.598;7.668;2023-02-17T15:58:13;11.23;;;8.40;;
29382;SDS011;16365;51.598;7.668;2023-02-17T16:00:42;11.27;;;8.55;;
29382;SDS011;16365;51.598;7.668;2023-02-17T16:03:15;13.40;;;8.65;;
29382;SDS011;16365;51.598;7.668;2023-02-17T16:05:43;11.80;;;8.35;;
29382;SDS011;16365;51.598;7.668;2023-02-17T16:08:09;13.07;;;9.02;;
29382;SDS011;16365;51.598;7.668;2023-02-17T16:10:36;12.20;;;8.40;;
29382;SDS011;16365;51.598;7.668;2023-02-17T16:15:32;18.60;;;10.38;;
29382;SDS011;16365;51.598;7.668;2023-02-17T16:18:00;15.20;;;11.18;;
29382;SDS011;16365;51.598;7.668;2023-02-17T16:20:27;13.88;;;10.50;;
29382;SDS011;16365;51.598;7.668;2023-02-17T16:23:00;14.90;;;10.30;;
29382;SDS011;16365;51.598;7.668;2023-02-17T16:25:27;19.15;;;13.35;;
29382;SDS011;16365;51.598;7.668;2023-02-17T16:27:54;22.80;;;14.70;;
29382;SDS011;16365;51.598;7.668;2023-02-17T16:30:39;22.95;;;13.65;;
29382;SDS011;16365;51.598;7.668;2023-02-17T16:33:08;21.90;;;14.52;;
29382;SDS011;16365;51.598;7.668;2023-02-17T16:35:35;19.45;;;13.43;;
29382;SDS011;16365;51.598;7.668;2023-02-17T16:38:06;18.67;;;11.93;;
29382;SDS011;16365;51.598;7.668;2023-02-17T16:40:38;14.93;;;10.93;;
29382;SDS011;16365;51.598;7.668;2023-02-17T16:43:13;21.38;;;13.25;;